Time;durP1;ratioP1;P1;durP2;ratioP2;P2;SDS_P1;SDS_P2;PMS_P1;PMS_P2;Temp;Humidity;BMP_temperature;BMP_pressure;BME280_temperature;BME280_humidity;BME280_pressure;Samples;Min_cycle;Max_cycle;Signal;HPM_P1;HPM_P2
2021/10/07 00:00:53;;;;;;;7.35;5.22;;;11.80;79.10;;;;;;5108453;28;20043;-73
2021/10/07 00:03:19;;;;;;;9.43;5.85;;;11.80;79.00;;;;;;5102926;28;20067;-72
2021/10/07 00:05:44;;;;;;;10.82;6.10;;;11.70;79.30;;;;;;5103918;28;20035;-72
2021/10/07 00:08:10;;;;;;;8.85;5.80;;;11.80;79.40;;;;;;5111655;28;20059;-72
2021/10/07 00:10:36;;;;;;;6.70;5.57;;;11.80;79.50;;;;;;5068509;28;20150;-73
2021/10/07 00:13:01;;;;;;;8.15;5.63;;;11.70;79.40;;;;;;5083023;28;20032;-72
2021/10/07 00:15:27;;;;;;;7.93;5.78;;;11.70;79.50;;;;;;5089965;28;20023;-72
2021/10/07 00:17:54;;;;;;;9.13;5.75;;;11.70;79.50;;;;;;5082449;28;20067;-73
2021/10/07 00:20:19;;;;;;;10.00;6.82;;;11.70;80.30;;;;;;5108190;28;20157;-73
2021/10/07 00:22:46;;;;;;;21.23;7.45;;;11.70;80.10;;;;;;5105884;28;20118;-73
2021/10/07 00:25:13;;;;;;;21.40;8.00;;;11.70;80.40;;;;;;5089908;28;20031;-72
2021/10/07 00:27:39;;;;;;;17.15;7.00;;;11.70;80.70;;;;;;5104290;28;20366;-72
2021/10/07 00:30:16;;;;;;;11.73;7.90;;;11.70;81.00;;;;;;5099886;28;20031;-72
2021/10/07 00:33:28;;;;;;;12.90;7.75;;;11.70;81.30;;;;;;5110047;28;20031;-72
2021/10/07 00:40:48;;;;;;;33.35;9.35;;;11.80;82.00;;;;;;5106648;28;20077;-73
2021/10/07 00:43:14;;;;;;;26.73;8.85;;;11.80;82.30;;;;;;5109293;28;20064;-72
2021/10/07 00:45:40;;;;;;;31.80;9.30;;;11.80;82.40;;;;;;5109791;28;20474;-72
2021/10/07 00:48:06;;;;;;;19.92;10.20;;;11.80;82.60;;;;;;5087758;28;20023;-72
2021/10/07 00:50:32;;;;;;;18.67;9.45;;;11.80;82.80;;;;;;5108154;28;20039;-71
2021/10/07 00:52:58;;;;;;;23.55;9.85;;;11.80;82.90;;;;;;5090585;28;20055;-71
2021/10/07 00:55:24;;;;;;;14.52;9.45;;;11.90;83.00;;;;;;5108461;28;20537;-71
2021/10/07 00:57:50;;;;;;;26.08;9.88;;;11.90;83.20;;;;;;5089161;28;20152;-72
2021/10/07 01:00:16;;;;;;;92.47;11.60;;;11.90;83.30;;;;;;5087546;28;20486;-72
2021/10/07 01:02:41;;;;;;;43.72;11.00;;;11.90;83.40;;;;;;5088853;28;20512;-72
2021/10/07 01:05:08;;;;;;;44.38;9.82;;;11.90;83.60;;;;;;5108665;28;20071;-73
2021/10/07 01:07:33;;;;;;;56.72;10.05;;;11.90;83.70;;;;;;5072350;28;20081;-72
2021/10/07 01:09:59;;;;;;;38.58;9.65;;;12.00;84.00;;;;;;5089865;28;20463;-71
2021/10/07 01:12:25;;;;;;;49.58;10.77;;;11.90;84.20;;;;;;5106839;28;20035;-72
2021/10/07 01:14:54;;;;;;;28.88;10.30;;;12.00;84.50;;;;;;5106882;28;20496;-72
2021/10/07 01:17:22;;;;;;;31.15;8.77;;;12.00;84.60;;;;;;5074218;28;20110;-73
2021/10/07 01:19:51;;;;;;;38.28;8.05;;;12.00;84.80;;;;;;5104884;28;20024;-71
2021/10/07 01:22:18;;;;;;;49.70;6.95;;;12.00;85.10;;;;;;5088657;28;20058;-72
2021/10/07 01:24:44;;;;;;;101.68;6.88;;;12.00;85.20;;;;;;5090988;28;20055;-71
2021/10/07 01:27:10;;;;;;;83.30;7.15;;;12.10;85.40;;;;;;5105961;28;20056;-72
2021/10/07 01:29:38;;;;;;;68.15;6.88;;;12.00;85.50;;;;;;5103639;28;20447;-72
2021/10/07 01:32:04;;;;;;;43.10;6.68;;;12.00;85.60;;;;;;5089499;28;20522;-72
2021/10/07 01:34:31;;;;;;;44.67;6.30;;;12.10;85.70;;;;;;5101296;28;20027;-72
2021/10/07 01:36:57;;;;;;;20.38;5.88;;;12.10;85.80;;;;;;5101246;28;20055;-72
2021/10/07 01:39:24;;;;;;;19.48;5.80;;;12.10;85.70;;;;;;5109018;28;20024;-72
2021/10/07 01:41:50;;;;;;;36.22;5.93;;;12.10;85.50;;;;;;5103701;28;20051;-72
2021/10/07 01:44:21;;;;;;;11.00;5.40;;;12.10;85.30;;;;;;5087095;28;20031;-72
2021/10/07 01:46:47;;;;;;;17.33;5.82;;;12.10;85.20;;;;;;5088050;28;20039;-72
2021/10/07 01:49:12;;;;;;;6.20;5.30;;;12.00;85.00;;;;;;5090788;28;20435;-72
2021/10/07 01:51:38;;;;;;;5.50;4.78;;;12.00;84.70;;;;;;5110732;27;20034;-72
2021/10/07 01:54:05;;;;;;;4.90;4.50;;;12.00;85.00;;;;;;5089158;28;20059;-72
2021/10/07 01:56:32;;;;;;;5.07;4.68;;;11.90;84.20;;;;;;5106374;28;20443;-73
2021/10/07 01:58:58;;;;;;;5.45;4.80;;;11.90;83.90;;;;;;5107546;28;20485;-72
2021/10/07 02:01:24;;;;;;;5.32;4.82;;;11.90;83.70;;;;;;5108963;28;20112;-71
2021/10/07 02:03:49;;;;;;;5.70;4.80;;;11.80;83.40;;;;;;5087151;28;20036;-73
2021/10/07 02:06:15;;;;;;;4.90;4.50;;;11.80;83.20;;;;;;5089906;28;20743;-73
2021/10/07 02:08:41;;;;;;;7.45;5.07;;;11.80;83.00;;;;;;5107133;28;20079;-73
2021/10/07 02:11:08;;;;;;;5.65;5.18;;;11.70;82.80;;;;;;5084937;28;20067;-72
2021/10/07 02:13:34;;;;;;;17.30;6.28;;;11.70;82.70;;;;;;5094489;28;20371;-72
2021/10/07 02:15:59;;;;;;;9.57;6.30;;;11.70;82.80;;;;;;5088448;28;20031;-72
2021/10/07 02:18:26;;;;;;;11.20;7.15;;;11.70;82.90;;;;;;5105461;28;20414;-71
2021/10/07 02:20:52;;;;;;;8.38;6.60;;;11.70;83.00;;;;;;5108761;28;20027;-73
2021/10/07 02:23:18;;;;;;;7.45;6.65;;;11.60;82.90;;;;;;5072910;28;20032;-73
2021/10/07 02:25:44;;;;;;;6.70;6.03;;;11.60;82.90;;;;;;5107755;28;20031;-72
2021/10/07 02:28:09;;;;;;;7.38;6.03;;;11.60;82.90;;;;;;5091226;28;20036;-72
2021/10/07 02:30:35;;;;;;;11.52;6.75;;;11.60;82.80;;;;;;5089876;28;21022;-72
2021/10/07 02:33:01;;;;;;;7.82;7.10;;;11.60;82.70;;;;;;5101266;28;20037;-72
2021/10/07 02:35:26;;;;;;;8.18;6.68;;;11.50;82.70;;;;;;5086926;28;20028;-71
2021/10/07 02:37:52;;;;;;;7.43;6.40;;;11.50;82.60;;;;;;5088638;28;20108;-73
2021/10/07 02:40:18;;;;;;;8.80;6.13;;;11.50;82.60;;;;;;5111096;28;20039;-73
2021/10/07 02:42:45;;;;;;;7.28;6.55;;;11.50;82.50;;;;;;5093568;28;20409;-73
2021/10/07 02:45:13;;;;;;;6.63;6.03;;;11.40;82.40;;;;;;5113364;28;20027;-72
2021/10/07 02:47:39;;;;;;;8.55;5.85;;;11.40;82.50;;;;;;5090470;28;20036;-72
2021/10/07 02:50:06;;;;;;;6.90;5.53;;;11.40;82.40;;;;;;5091492;28;20440;-72
2021/10/07 02:52:32;;;;;;;9.60;6.00;;;11.40;82.30;;;;;;5111739;28;20058;-73
2021/10/07 02:54:58;;;;;;;7.30;5.30;;;11.40;82.30;;;;;;5089492;28;20066;-72
2021/10/07 02:57:24;;;;;;;6.95;5.38;;;11.30;82.10;;;;;;5108844;28;20047;-72
2021/10/07 02:59:49;;;;;;;9.43;6.03;;;11.30;82.00;;;;;;5109547;28;20102;-71
2021/10/07 03:02:16;;;;;;;10.65;5.53;;;11.30;82.00;;;;;;5110891;28;20024;-72
2021/10/07 03:04:43;;;;;;;6.03;5.32;;;11.30;82.00;;;;;;5109742;28;20552;-71
2021/10/07 03:07:11;;;;;;;11.85;5.30;;;11.30;81.90;;;;;;5090072;28;20050;-73
2021/10/07 03:09:40;;;;;;;9.88;5.30;;;11.20;81.80;;;;;;5088297;28;20479;-73
2021/10/07 03:12:07;;;;;;;9.05;5.03;;;11.20;81.70;;;;;;5108938;28;20053;-72
2021/10/07 03:14:33;;;;;;;5.68;5.07;;;11.20;81.60;;;;;;5111190;28;20023;-72
2021/10/07 03:16:59;;;;;;;5.38;4.38;;;11.10;81.50;;;;;;5093017;28;20031;-71
2021/10/07 03:19:25;;;;;;;5.32;4.72;;;11.10;81.30;;;;;;5111102;28;20032;-72
2021/10/07 03:21:51;;;;;;;5.30;4.65;;;11.10;81.10;;;;;;5105288;28;20027;-73
2021/10/07 03:24:16;;;;;;;5.97;4.03;;;11.00;81.10;;;;;;5106438;28;20043;-71
2021/10/07 03:26:42;;;;;;;5.50;4.45;;;11.00;81.00;;;;;;5090033;28;20039;-72
2021/10/07 03:29:08;;;;;;;4.50;4.07;;;11.00;80.90;;;;;;5089977;28;20077;-72
2021/10/07 03:31:33;;;;;;;4.45;3.70;;;11.00;80.90;;;;;;5074943;28;20555;-72
2021/10/07 03:33:59;;;;;;;4.20;3.88;;;10.90;80.80;;;;;;5107692;28;20024;-72
2021/10/07 03:36:25;;;;;;;5.05;4.07;;;10.90;80.70;;;;;;5111859;28;20023;-72
2021/10/07 03:38:51;;;;;;;5.30;4.63;;;10.80;80.70;;;;;;5111757;28;20032;-72
2021/10/07 03:41:17;;;;;;;4.85;4.00;;;10.80;80.70;;;;;;5091894;28;20063;-72
2021/10/07 03:43:42;;;;;;;4.35;3.97;;;10.80;80.70;;;;;;5110814;28;20490;-72
2021/10/07 03:46:08;;;;;;;6.47;4.07;;;10.70;80.60;;;;;;5107423;28;20370;-72
2021/10/07 03:48:34;;;;;;;4.43;4.03;;;10.70;80.60;;;;;;5092879;28;20045;-72
2021/10/07 03:50:59;;;;;;;5.32;3.80;;;10.70;80.40;;;;;;5104625;28;20039;-71
2021/10/07 03:53:27;;;;;;;4.13;3.70;;;10.70;80.40;;;;;;5086267;28;20069;-72
2021/10/07 03:55:53;;;;;;;4.25;3.70;;;10.70;80.30;;;;;;5089407;28;20028;-73
2021/10/07 03:58:19;;;;;;;4.60;4.20;;;10.70;80.20;;;;;;5092506;28;20462;-72
2021/10/07 04:00:45;;;;;;;4.10;3.70;;;10.60;80.00;;;;;;5090602;28;20110;-73
2021/10/07 04:03:10;;;;;;;5.47;4.22;;;10.60;80.10;;;;;;5109243;28;20114;-72
2021/10/07 04:05:36;;;;;;;4.82;3.90;;;10.60;80.00;;;;;;5091928;28;20165;-72
2021/10/07 04:08:04;;;;;;;6.80;4.50;;;10.50;80.00;;;;;;5092332;28;20050;-71
2021/10/07 04:10:30;;;;;;;9.25;4.13;;;10.50;80.00;;;;;;5090526;28;20028;-72
2021/10/07 04:12:56;;;;;;;5.20;4.45;;;10.50;80.00;;;;;;5110297;28;20082;-72
2021/10/07 04:15:22;;;;;;;4.78;4.10;;;10.50;80.20;;;;;;5104741;28;20066;-72
2021/10/07 04:17:47;;;;;;;4.65;3.88;;;10.40;80.10;;;;;;5110363;28;20052;-72
2021/10/07 04:20:13;;;;;;;5.30;4.03;;;10.40;80.20;;;;;;5075121;28;20019;-72
2021/10/07 04:22:39;;;;;;;5.68;4.10;;;10.40;80.20;;;;;;5111260;28;20036;-72
2021/10/07 04:25:05;;;;;;;7.53;4.30;;;10.40;80.20;;;;;;5111134;28;20038;-72
2021/10/07 04:27:31;;;;;;;9.20;4.30;;;10.40;80.40;;;;;;5109388;28;20111;-72
2021/10/07 04:30:03;;;;;;;5.80;4.45;;;10.40;80.60;;;;;;5089386;28;20055;-72
2021/10/07 04:32:29;;;;;;;5.32;4.35;;;10.40;80.70;;;;;;5104221;28;20050;-72
2021/10/07 04:34:55;;;;;;;14.25;4.53;;;10.40;80.80;;;;;;5088822;28;20046;-73
2021/10/07 04:37:21;;;;;;;13.10;5.53;;;10.40;81.00;;;;;;5090894;28;20019;-72
2021/10/07 04:39:46;;;;;;;36.63;5.90;;;10.40;81.00;;;;;;5088457;28;20036;-72
2021/10/07 04:42:12;;;;;;;16.48;5.72;;;10.40;81.30;;;;;;5075030;28;20486;-71
2021/10/07 04:44:38;;;;;;;22.55;5.32;;;10.40;81.60;;;;;;5074521;28;20039;-72
2021/10/07 04:47:03;;;;;;;32.47;5.30;;;10.40;81.90;;;;;;5105324;28;20095;-72
2021/10/07 04:49:29;;;;;;;25.90;5.45;;;10.40;82.10;;;;;;5108719;28;20035;-72
2021/10/07 04:51:55;;;;;;;15.38;4.68;;;10.40;82.20;;;;;;5084525;28;20087;-72
2021/10/07 04:54:21;;;;;;;20.20;5.40;;;10.40;82.30;;;;;;5109012;28;20031;-72
2021/10/07 04:56:46;;;;;;;16.17;4.93;;;10.40;82.20;;;;;;5088314;28;20098;-73
2021/10/07 04:59:12;;;;;;;20.67;4.90;;;10.40;82.10;;;;;;5108450;28;20084;-72
2021/10/07 05:01:38;;;;;;;8.45;4.30;;;10.30;81.80;;;;;;5107742;28;20482;-73
2021/10/07 05:04:03;;;;;;;11.07;4.63;;;10.30;81.70;;;;;;5106269;28;20785;-72
2021/10/07 05:06:30;;;;;;;5.68;4.05;;;10.30;81.50;;;;;;5088347;28;20028;-72
2021/10/07 05:08:56;;;;;;;5.28;4.22;;;10.30;81.30;;;;;;5091009;28;20085;-72
2021/10/07 05:11:22;;;;;;;4.82;4.40;;;10.30;81.00;;;;;;5108138;28;20031;-72
2021/10/07 05:13:47;;;;;;;6.70;3.85;;;10.20;80.90;;;;;;5104869;28;20471;-71
2021/10/07 05:16:13;;;;;;;4.60;4.20;;;10.20;80.80;;;;;;5108871;28;20031;-71
2021/10/07 05:18:39;;;;;;;5.32;4.55;;;10.20;80.70;;;;;;5091598;28;20452;-72
2021/10/07 05:21:05;;;;;;;6.15;4.22;;;10.20;80.60;;;;;;5091303;28;20078;-72
2021/10/07 05:23:31;;;;;;;4.95;4.45;;;10.10;80.30;;;;;;5105141;28;20038;-73
2021/10/07 05:25:57;;;;;;;6.85;4.40;;;10.10;80.20;;;;;;5073429;28;20118;-73
2021/10/07 05:28:22;;;;;;;6.13;4.20;;;10.10;80.10;;;;;;5109653;28;20806;-70
2021/10/07 05:30:49;;;;;;;3.97;3.50;;;10.10;80.10;;;;;;5107057;28;20062;-71
2021/10/07 05:33:15;;;;;;;3.67;3.38;;;10.00;80.00;;;;;;5084303;28;20032;-71
2021/10/07 05:35:41;;;;;;;5.47;3.70;;;10.00;80.00;;;;;;5100300;28;20019;-71
2021/10/07 05:38:07;;;;;;;5.28;3.92;;;10.00;79.90;;;;;;5091094;28;20036;-71
2021/10/07 05:40:33;;;;;;;4.55;4.00;;;9.90;79.80;;;;;;5088548;28;20038;-70
2021/10/07 05:42:59;;;;;;;5.57;4.00;;;9.90;79.80;;;;;;5087479;28;20398;-70
2021/10/07 05:45:24;;;;;;;4.50;3.78;;;9.90;79.80;;;;;;5103775;28;20414;-73
2021/10/07 05:47:50;;;;;;;4.15;3.75;;;9.90;79.90;;;;;;5107856;28;20507;-73
2021/10/07 05:50:16;;;;;;;5.80;3.78;;;9.80;79.90;;;;;;5100819;28;20032;-71
2021/10/07 05:52:42;;;;;;;5.65;3.80;;;9.80;79.80;;;;;;5087997;28;20537;-71
2021/10/07 05:55:09;;;;;;;4.82;4.20;;;9.80;79.90;;;;;;5108218;28;20035;-72
2021/10/07 05:57:34;;;;;;;5.35;3.80;;;9.80;79.90;;;;;;5102987;28;20032;-73
2021/10/07 06:00:00;;;;;;;5.03;4.10;;;9.70;80.00;;;;;;5088645;28;20481;-73
2021/10/07 06:02:26;;;;;;;6.18;3.83;;;9.70;80.00;;;;;;5087706;28;20381;-70
2021/10/07 06:04:51;;;;;;;4.70;3.42;;;9.70;80.00;;;;;;5072953;28;20086;-71
2021/10/07 06:07:17;;;;;;;5.38;3.33;;;9.70;80.00;;;;;;5101284;28;20035;-70
2021/10/07 06:09:43;;;;;;;4.70;3.50;;;9.70;79.90;;;;;;5085952;28;20386;-71
2021/10/07 06:12:09;;;;;;;8.35;3.60;;;9.70;79.90;;;;;;5101508;28;20067;-70
2021/10/07 06:14:34;;;;;;;7.85;3.78;;;9.70;80.20;;;;;;5085577;28;20024;-71
2021/10/07 06:17:00;;;;;;;8.30;4.25;;;9.70;80.40;;;;;;5107335;28;20076;-71
2021/10/07 06:19:30;;;;;;;11.48;4.22;;;9.70;80.60;;;;;;5104906;28;20114;-72
2021/10/07 06:21:56;;;;;;;20.40;4.00;;;9.70;81.40;;;;;;5103889;28;20092;-70
2021/10/07 06:24:22;;;;;;;22.65;3.92;;;9.70;81.10;;;;;;5089027;28;20482;-73
2021/10/07 06:26:47;;;;;;;73.63;4.85;;;9.70;81.60;;;;;;5106291;28;20028;-70
2021/10/07 06:29:13;;;;;;;88.05;5.00;;;9.80;81.90;;;;;;5102546;28;20389;-70
2021/10/07 06:31:40;;;;;;;71.28;5.10;;;9.80;82.20;;;;;;5098931;28;20067;-72
2021/10/07 06:34:06;;;;;;;49.95;4.00;;;9.80;82.60;;;;;;5105766;28;20036;-72
2021/10/07 06:36:32;;;;;;;196.25;6.53;;;9.80;82.80;;;;;;5088739;28;20494;-73
2021/10/07 06:38:58;;;;;;;162.95;5.72;;;9.80;83.30;;;;;;5087631;28;20039;-72
2021/10/07 06:41:23;;;;;;;145.00;5.30;;;9.90;83.50;;;;;;5098763;28;20770;-72
2021/10/07 06:43:50;;;;;;;145.52;5.93;;;9.90;83.60;;;;;;5084156;28;20028;-71
2021/10/07 06:46:15;;;;;;;93.55;5.20;;;9.90;83.90;;;;;;5103998;28;20092;-72
2021/10/07 06:48:41;;;;;;;116.07;6.63;;;9.90;84.10;;;;;;5104114;28;20531;-72
2021/10/07 06:51:11;;;;;;;32.88;3.95;;;10.00;84.30;;;;;;5086042;28;20031;-72
2021/10/07 06:53:39;;;;;;;43.80;4.10;;;10.00;84.50;;;;;;5105310;28;20054;-72
2021/10/07 06:56:06;;;;;;;44.17;4.40;;;10.00;84.60;;;;;;5103232;28;20032;-72
2021/10/07 06:58:32;;;;;;;55.38;4.53;;;10.10;84.60;;;;;;5103092;28;20058;-72
2021/10/07 07:00:58;;;;;;;29.40;3.70;;;10.10;84.50;;;;;;5102474;28;20051;-72
2021/10/07 07:03:23;;;;;;;31.77;3.65;;;10.10;84.30;;;;;;5086148;28;20036;-71
2021/10/07 07:05:49;;;;;;;25.05;3.85;;;10.10;84.20;;;;;;5087652;28;20061;-72
2021/10/07 07:08:14;;;;;;;20.60;3.58;;;10.10;84.00;;;;;;5107957;28;20512;-73
2021/10/07 07:10:40;;;;;;;13.90;3.65;;;10.10;84.10;;;;;;5106945;28;20040;-71
2021/10/07 07:13:06;;;;;;;8.63;3.90;;;10.10;84.20;;;;;;5073016;28;20233;-71
2021/10/07 07:15:33;;;;;;;5.95;3.20;;;10.10;84.20;;;;;;5082308;28;20454;-73
2021/10/07 07:17:59;;;;;;;3.72;3.42;;;10.10;84.20;;;;;;5100926;28;20035;-72
2021/10/07 07:20:25;;;;;;;3.10;2.90;;;10.10;84.30;;;;;;5081489;28;20038;-73
2021/10/07 07:22:51;;;;;;;3.30;3.10;;;10.10;84.30;;;;;;5099158;28;20039;-72
2021/10/07 07:25:17;;;;;;;3.92;3.63;;;10.20;84.30;;;;;;5100752;28;20060;-72
2021/10/07 07:27:44;;;;;;;3.83;3.53;;;10.20;84.40;;;;;;5108130;28;20044;-70
2021/10/07 07:30:10;;;;;;;3.80;3.50;;;10.30;84.50;;;;;;5110536;28;20386;-72
2021/10/07 07:32:36;;;;;;;3.58;3.28;;;10.30;84.60;;;;;;5110439;28;20015;-70
2021/10/07 07:35:02;;;;;;;6.63;4.38;;;10.30;84.80;;;;;;5072521;28;20036;-72
2021/10/07 07:37:28;;;;;;;9.50;5.18;;;10.30;84.90;;;;;;5107462;28;20089;-72
2021/10/07 07:39:54;;;;;;;26.35;5.70;;;10.40;85.20;;;;;;5090903;28;20432;-73
2021/10/07 07:42:20;;;;;;;62.83;6.85;;;10.40;85.40;;;;;;5087255;28;20036;-73
2021/10/07 07:44:46;;;;;;;19.83;6.03;;;10.40;85.60;;;;;;5091042;28;20063;-73
2021/10/07 07:47:12;;;;;;;35.38;6.38;;;10.40;85.90;;;;;;5092499;28;20454;-72
2021/10/07 07:49:39;;;;;;;39.75;5.90;;;10.50;86.20;;;;;;5109542;28;20039;-73
2021/10/07 07:52:06;;;;;;;76.53;6.20;;;10.50;86.30;;;;;;5107584;28;20382;-73
2021/10/07 07:54:31;;;;;;;18.58;5.70;;;10.60;86.50;;;;;;5105038;28;20035;-73
2021/10/07 07:56:57;;;;;;;25.48;5.32;;;10.60;86.50;;;;;;5091606;28;20035;-72
2021/10/07 07:59:23;;;;;;;37.15;5.78;;;10.70;86.80;;;;;;5109441;28;20501;-72
2021/10/07 08:01:49;;;;;;;53.00;6.63;;;10.80;86.90;;;;;;5087384;28;20426;-70
2021/10/07 08:04:15;;;;;;;94.80;7.57;;;10.90;87.10;;;;;;5091760;28;20452;-70
2021/10/07 08:06:40;;;;;;;107.45;7.22;;;10.90;87.00;;;;;;5108779;28;20080;-70
2021/10/07 08:09:07;;;;;;;184.38;8.50;;;10.90;86.90;;;;;;5090185;28;20032;-71
2021/10/07 08:11:39;;;;;;;141.20;8.02;;;10.90;86.60;;;;;;5088458;28;20047;-70
2021/10/07 08:14:06;;;;;;;9.82;6.55;;;10.90;86.50;;;;;;5106676;28;20036;-71
2021/10/07 08:16:32;;;;;;;23.67;6.53;;;10.90;86.80;;;;;;5105613;28;20028;-70
2021/10/07 08:18:58;;;;;;;176.43;8.75;;;10.90;87.10;;;;;;5090661;28;20108;-70
2021/10/07 08:21:24;;;;;;;43.53;7.40;;;11.00;87.30;;;;;;5088097;28;20062;-71
2021/10/07 08:23:50;;;;;;;104.32;8.07;;;11.00;87.50;;;;;;5106756;28;20027;-71
2021/10/07 08:26:16;;;;;;;83.43;8.60;;;11.10;87.60;;;;;;5108023;28;20524;-71
2021/10/07 08:28:42;;;;;;;168.73;8.80;;;11.10;87.60;;;;;;5105148;28;20209;-71
2021/10/07 08:31:08;;;;;;;125.70;9.30;;;11.10;87.50;;;;;;5101901;28;20705;-71
2021/10/07 08:33:34;;;;;;;44.22;7.93;;;11.20;87.50;;;;;;5106812;28;20034;-70
2021/10/07 08:35:59;;;;;;;153.50;9.70;;;11.20;87.70;;;;;;5109804;28;20020;-71
2021/10/07 08:38:26;;;;;;;201.48;11.35;;;11.30;87.90;;;;;;5109947;28;20036;-70
2021/10/07 08:40:53;;;;;;;92.28;10.05;;;11.30;87.70;;;;;;5103990;28;20023;-70
2021/10/07 08:43:19;;;;;;;37.20;8.48;;;11.30;87.70;;;;;;5089252;28;20035;-71
2021/10/07 08:45:46;;;;;;;116.47;10.00;;;11.30;87.90;;;;;;5106671;28;20440;-70
2021/10/07 08:48:11;;;;;;;82.35;9.65;;;11.40;88.00;;;;;;5110073;28;20020;-70
2021/10/07 08:50:37;;;;;;;36.25;9.70;;;11.40;88.20;;;;;;5108142;28;20052;-70
2021/10/07 08:53:06;;;;;;;55.17;10.15;;;11.40;88.00;;;;;;5108423;28;20051;-72
2021/10/07 08:55:32;;;;;;;110.78;10.00;;;11.40;88.30;;;;;;5090754;28;20031;-73
2021/10/07 08:57:57;;;;;;;30.90;10.13;;;11.40;88.30;;;;;;5103578;28;20028;-73
2021/10/07 09:00:23;;;;;;;20.83;9.57;;;11.50;88.60;;;;;;5107877;28;20031;-71
2021/10/07 09:02:49;;;;;;;25.67;8.57;;;11.50;89.10;;;;;;5108949;28;20040;-71
2021/10/07 09:05:22;;;;;;;15.90;10.88;;;11.60;88.70;;;;;;5075049;28;20043;-72
2021/10/07 09:08:02;;;;;;;78.10;11.90;;;11.60;88.60;;;;;;5100424;28;20027;-72
2021/10/07 09:10:37;;;;;;;31.52;12.23;;;11.60;88.80;;;;;;5086707;28;20048;-73
2021/10/07 09:13:25;;;;;;;47.28;12.35;;;11.60;89.00;;;;;;5103810;28;20111;-73
2021/10/07 09:15:55;;;;;;;25.27;11.13;;;11.70;89.30;;;;;;5104692;28;20024;-72
2021/10/07 09:18:21;;;;;;;27.33;12.07;;;11.80;89.40;;;;;;5104411;28;20115;-71
2021/10/07 09:20:49;;;;;;;29.90;12.13;;;11.80;89.50;;;;;;5078337;28;20044;-73
2021/10/07 09:23:32;;;;;;;22.58;13.05;;;11.90;89.50;;;;;;5091298;28;20386;-73
2021/10/07 09:25:58;;;;;;;20.75;13.40;;;11.90;89.60;;;;;;5098260;28;20028;-72
2021/10/07 09:28:25;;;;;;;22.58;13.80;;;12.00;89.60;;;;;;5080737;28;20501;-73
2021/10/07 09:31:01;;;;;;;26.08;14.13;;;12.10;89.60;;;;;;5109306;28;20020;-73
2021/10/07 09:33:38;;;;;;;20.83;13.80;;;12.10;89.60;;;;;;5106087;28;20097;-73
2021/10/07 09:36:16;;;;;;;28.00;13.38;;;12.20;89.60;;;;;;5086712;28;20370;-73
2021/10/07 09:38:43;;;;;;;27.08;13.88;;;12.30;89.40;;;;;;5104736;28;20031;-71
2021/10/07 09:41:16;;;;;;;16.85;11.02;;;12.30;89.20;;;;;;5080749;28;20048;-71
2021/10/07 09:43:57;;;;;;;20.60;14.32;;;12.30;89.40;;;;;;5097343;28;20039;-71
2021/10/07 09:46:48;;;;;;;18.15;12.93;;;12.30;89.40;;;;;;5100065;28;20031;-71
2021/10/07 09:49:34;;;;;;;22.05;14.45;;;12.30;89.60;;;;;;5096423;28;20027;-72
2021/10/07 09:52:01;;;;;;;18.48;14.05;;;12.30;89.80;;;;;;5097508;28;20386;-71
2021/10/07 09:54:33;;;;;;;26.83;15.80;;;12.40;89.80;;;;;;5096857;28;20106;-70
2021/10/07 09:57:02;;;;;;;18.15;14.15;;;12.40;89.90;;;;;;5101698;28;20474;-72
2021/10/07 09:59:30;;;;;;;20.35;16.15;;;12.50;89.80;;;;;;5100754;28;20443;-71
2021/10/07 10:01:57;;;;;;;21.25;14.95;;;12.50;89.70;;;;;;5103151;28;20031;-72
2021/10/07 10:04:26;;;;;;;21.25;16.33;;;12.60;89.70;;;;;;5100590;28;20032;-71
2021/10/07 10:06:52;;;;;;;22.48;17.23;;;12.60;89.70;;;;;;5098077;28;20393;-72
2021/10/07 10:09:22;;;;;;;22.95;17.85;;;12.60;89.80;;;;;;5103356;28;20031;-71
2021/10/07 10:11:48;;;;;;;23.08;17.63;;;12.60;89.70;;;;;;5089075;28;20079;-72
2021/10/07 10:14:14;;;;;;;22.02;16.15;;;12.60;89.80;;;;;;5096168;28;20024;-72
2021/10/07 10:16:41;;;;;;;20.30;16.08;;;12.70;90.00;;;;;;5101939;28;20019;-72
2021/10/07 10:19:09;;;;;;;26.92;18.85;;;12.70;90.00;;;;;;5105842;28;20027;-72
2021/10/07 10:21:39;;;;;;;23.52;18.70;;;12.70;90.00;;;;;;5105629;28;20113;-71
2021/10/07 10:24:07;;;;;;;24.48;18.80;;;12.70;89.80;;;;;;5106650;28;20055;-71
2021/10/07 10:26:38;;;;;;;28.00;19.35;;;12.70;90.00;;;;;;5106443;28;20980;-70
2021/10/07 10:29:19;;;;;;;29.45;20.13;;;12.70;89.90;;;;;;5109375;28;20023;-71
2021/10/07 10:31:47;;;;;;;31.02;20.52;;;12.70;89.90;;;;;;5109341;28;20505;-72
2021/10/07 10:34:16;;;;;;;27.08;19.92;;;12.70;89.90;;;;;;5107178;28;20397;-71
2021/10/07 10:37:00;;;;;;;30.10;21.55;;;12.80;90.00;;;;;;5100074;28;20020;-71
2021/10/07 10:39:35;;;;;;;31.92;20.83;;;12.80;90.00;;;;;;5103465;28;20040;-71
2021/10/07 10:42:02;;;;;;;27.10;19.20;;;12.80;89.90;;;;;;5100663;28;20035;-71
2021/10/07 10:44:27;;;;;;;32.13;20.67;;;12.80;90.00;;;;;;5105851;28;20502;-72
2021/10/07 10:47:05;;;;;;;31.25;20.98;;;12.90;90.10;;;;;;5085874;28;20047;-71
2021/10/07 10:49:55;;;;;;;32.45;21.77;;;13.00;90.10;;;;;;5105217;28;20051;-72
2021/10/07 10:52:29;;;;;;;30.63;21.45;;;13.00;90.00;;;;;;5099591;28;20024;-72
2021/10/07 10:55:00;;;;;;;33.17;22.25;;;13.00;89.90;;;;;;5088606;28;20107;-72
2021/10/07 10:57:36;;;;;;;31.08;20.05;;;13.10;90.00;;;;;;5102456;28;20046;-71
2021/10/07 11:00:05;;;;;;;33.40;22.33;;;13.20;90.10;;;;;;5101419;28;20523;-72
2021/10/07 11:02:31;;;;;;;35.83;23.02;;;13.20;89.90;;;;;;5103979;28;20113;-71
2021/10/07 11:04:57;;;;;;;33.55;22.48;;;13.20;90.00;;;;;;5109936;28;20024;-72
2021/10/07 11:07:35;;;;;;;37.45;25.10;;;13.30;90.00;;;;;;5105663;27;20554;-71
2021/10/07 11:10:28;;;;;;;36.67;24.25;;;13.30;89.60;;;;;;5091203;28;20446;-71
2021/10/07 11:13:00;;;;;;;34.80;24.05;;;13.20;89.40;;;;;;5109887;28;20119;-73
2021/10/07 11:15:28;;;;;;;38.78;24.48;;;13.30;89.50;;;;;;5103769;28;20024;-73
2021/10/07 11:17:55;;;;;;;31.55;21.40;;;13.30;89.50;;;;;;5107766;28;20059;-73
2021/10/07 11:20:25;;;;;;;33.42;24.02;;;13.30;89.60;;;;;;5104753;28;20466;-73
2021/10/07 11:22:59;;;;;;;29.13;22.02;;;13.30;89.00;;;;;;5090044;28;20059;-70
2021/10/07 11:25:25;;;;;;;30.85;22.55;;;13.30;89.00;;;;;;5108908;28;20100;-71
2021/10/07 11:27:51;;;;;;;31.13;23.60;;;13.30;89.00;;;;;;5111226;28;20057;-72
2021/10/07 11:30:20;;;;;;;25.95;20.15;;;13.30;89.10;;;;;;5109594;28;20043;-71
2021/10/07 11:32:46;;;;;;;28.35;22.35;;;13.30;88.80;;;;;;5103520;28;20443;-70
2021/10/07 11:35:15;;;;;;;28.65;22.13;;;13.20;88.50;;;;;;5111007;28;20032;-72
2021/10/07 11:37:53;;;;;;;26.10;20.38;;;13.20;88.80;;;;;;5090644;28;20360;-73
2021/10/07 11:40:43;;;;;;;31.27;23.63;;;13.20;88.90;;;;;;5093381;28;20445;-72
2021/10/07 11:43:24;;;;;;;34.35;24.23;;;13.20;88.70;;;;;;5108427;28;20038;-74
2021/10/07 11:45:56;;;;;;;33.22;24.38;;;13.20;88.70;;;;;;5105503;28;20478;-72
2021/10/07 11:48:22;;;;;;;31.77;23.20;;;13.20;88.60;;;;;;5102354;28;20039;-73
2021/10/07 11:50:57;;;;;;;31.58;23.58;;;13.30;88.70;;;;;;5102862;28;20391;-73
2021/10/07 11:53:42;;;;;;;29.80;22.73;;;13.30;88.60;;;;;;5088255;28;20036;-73
2021/10/07 11:56:17;;;;;;;28.92;22.10;;;13.40;88.70;;;;;;5101048;28;20143;-73
2021/10/07 11:58:56;;;;;;;27.90;21.73;;;13.40;88.80;;;;;;5109250;28;20116;-72
2021/10/07 12:01:25;;;;;;;28.50;21.67;;;13.40;88.60;;;;;;5085083;28;20020;-70
2021/10/07 12:03:58;;;;;;;28.45;22.30;;;13.40;88.40;;;;;;5104727;28;20076;-71
2021/10/07 12:06:24;;;;;;;;;;;13.50;88.30;;;;;;5108751;28;20375;-74
2021/10/07 12:08:50;;;;;;;26.70;21.17;;;13.50;88.10;;;;;;5089866;28;19911;-70
2021/10/07 12:11:24;;;;;;;28.45;22.10;;;13.50;87.60;;;;;;5106569;28;20504;-71
2021/10/07 12:13:51;;;;;;;25.77;20.92;;;13.40;87.70;;;;;;5104587;28;20032;-71
2021/10/07 12:16:22;;;;;;;26.65;20.73;;;13.40;87.80;;;;;;5085140;28;20024;-72
2021/10/07 12:18:55;;;;;;;24.05;19.58;;;13.50;87.50;;;;;;5104612;28;20032;-72
2021/10/07 12:21:23;;;;;;;23.75;19.13;;;13.50;87.30;;;;;;5103144;28;20102;-72
2021/10/07 12:23:57;;;;;;;23.35;18.30;;;13.50;87.50;;;;;;5073819;28;20146;-71
2021/10/07 12:26:29;;;;;;;25.48;20.25;;;13.50;87.30;;;;;;5105215;28;20028;-70
2021/10/07 12:28:58;;;;;;;21.92;19.23;;;13.60;87.40;;;;;;5109160;28;20028;-71
2021/10/07 12:31:29;;;;;;;22.60;19.55;;;13.60;87.30;;;;;;5091989;28;20067;-71
2021/10/07 12:33:58;;;;;;;19.65;17.55;;;13.70;87.40;;;;;;5090136;28;20553;-71
2021/10/07 12:36:36;;;;;;;21.35;17.75;;;13.70;87.30;;;;;;5102139;28;20020;-70
2021/10/07 12:39:05;;;;;;;21.15;18.05;;;13.80;87.20;;;;;;5107858;28;20036;-70
2021/10/07 12:41:35;;;;;;;21.40;18.10;;;13.80;87.30;;;;;;5105560;28;20043;-71
2021/10/07 12:44:01;;;;;;;18.60;16.60;;;13.90;87.40;;;;;;5092175;28;20418;-71
2021/10/07 12:46:27;;;;;;;20.73;16.80;;;13.90;87.40;;;;;;5075212;28;20023;-69